Time;durP1;ratioP1;P1;durP2;ratioP2;P2;SDS_P1;SDS_P2;PMS_P1;PMS_P2;Temp;Humidity;BMP_temperature;BMP_pressure;BME280_temperature;BME280_humidity;BME280_pressure;Samples;Min_cycle;Max_cycle;Signal;HPM_P1;HPM_P2
2021/03/26 00:00:19;;;;;;;;;;;;;;;19.20;33.95;101247.88;5118987;28;796;-59
2021/03/26 00:02:45;;;;;;;;;;;;;;;20.29;32.42;101242.69;5119042;28;839;-48
2021/03/26 00:05:11;;;;;;;;;;;;;;;20.70;31.34;101242.38;5120094;28;882;-57
2021/03/26 00:07:37;;;;;;;;;;;;;;;20.31;32.30;101240.44;5120255;28;953;-50
2021/03/26 00:10:04;;;;;;;;;;;;;;;20.16;32.29;101239.44;5120416;28;842;-58
2021/03/26 00:12:29;;;;;;;;;;;;;;;19.47;33.42;101239.25;5118660;28;1925;-57
2021/03/26 00:14:54;;;;;;;;;;;;;;;20.12;32.57;101238.38;5120458;28;835;-47
2021/03/26 00:17:20;;;;;;;;;;;;;;;20.76;31.21;101226.56;5120473;28;763;-55
2021/03/26 00:19:45;;;;;;;;;;;;;;;20.37;32.05;101236.53;5118684;28;1115;-52
2021/03/26 00:22:11;;;;;;;;;;;;;;;20.30;32.22;101234.09;5119779;28;1020;-58
2021/03/26 00:24:36;;;;;;;;;;;;;;;19.58;33.58;101231.75;5120251;28;764;-57
2021/03/26 00:27:02;;;;;;;;;;;;;;;20.08;32.60;101231.78;5119758;27;826;-56
2021/03/26 00:29:27;;;;;;;;;;;;;;;20.70;31.39;101228.53;5120014;28;819;-51
2021/03/26 00:31:52;;;;;;;;;;;;;;;20.13;32.51;101237.28;5120489;28;835;-48
2021/03/26 00:34:18;;;;;;;;;;;;;;;20.16;32.43;101233.94;5119753;28;1969;-57
2021/03/26 00:36:43;;;;;;;;;;;;;;;19.51;33.42;101238.69;5119316;28;1024;-48
2021/03/26 00:39:09;;;;;;;;;;;;;;;19.84;33.22;101234.41;5119796;28;823;-49
2021/03/26 00:41:35;;;;;;;;;;;;;;;20.70;31.66;101234.06;5119763;28;767;-53
2021/03/26 00:44:00;;;;;;;;;;;;;;;20.37;32.07;101236.53;5118430;28;783;-48
2021/03/26 00:46:25;;;;;;;;;;;;;;;20.21;32.28;101229.47;5118515;28;763;-49
2021/03/26 00:48:51;;;;;;;;;;;;;;;19.76;33.03;101232.22;5119703;28;783;-58
2021/03/26 00:51:16;;;;;;;;;;;;;;;20.00;32.96;101230.44;5117618;28;1325;-49
2021/03/26 00:53:42;;;;;;;;;;;;;;;20.75;31.40;101233.19;5119448;28;1906;-58
2021/03/26 00:56:07;;;;;;;;;;;;;;;20.28;32.08;101232.75;5119603;28;782;-49
2021/03/26 00:58:33;;;;;;;;;;;;;;;20.29;32.16;101231.63;5118342;28;1199;-53
2021/03/26 01:00:58;;;;;;;;;;;;;;;19.72;33.17;101237.47;5118124;28;756;-58
2021/03/26 01:03:24;;;;;;;;;;;;;;;19.63;33.68;101228.16;5119539;28;798;-47
2021/03/26 01:05:51;;;;;;;;;;;;;;;20.61;31.79;101224.75;5118874;28;973;-49
2021/03/26 01:08:17;;;;;;;;;;;;;;;20.33;32.21;101236.28;5118074;28;938;-50
2021/03/26 01:10:45;;;;;;;;;;;;;;;20.21;32.26;101237.78;5118195;28;759;-50
2021/03/26 01:13:11;;;;;;;;;;;;;;;19.69;33.34;101235.28;5118864;28;1909;-54
2021/03/26 01:15:37;;;;;;;;;;;;;;;19.21;34.20;101244.03;5119221;28;863;-47
2021/03/26 01:18:04;;;;;;;;;;;;;;;20.38;32.24;101237.38;5118017;28;1452;-51
2021/03/26 01:20:31;;;;;;;;;;;;;;;20.72;31.45;101237.38;5117868;28;1307;-48
2021/03/26 01:22:57;;;;;;;;;;;;;;;20.15;32.55;101242.50;5117567;28;1539;-53
2021/03/26 01:25:27;;;;;;;;;;;;;;;20.11;32.33;101236.72;5119321;28;755;-49
2021/03/26 01:28:08;;;;;;;;;;;;;;;19.26;33.89;101241.22;5117199;28;1234;-48
2021/03/26 01:30:34;;;;;;;;;;;;;;;20.22;32.25;101236.66;5119014;28;767;-50
2021/03/26 01:33:00;;;;;;;;;;;;;;;20.69;31.36;101232.41;5100662;28;2096;-56
2021/03/26 01:35:28;;;;;;;;;;;;;;;20.27;32.03;101239.38;5117031;28;1337;-57
2021/03/26 01:37:53;;;;;;;;;;;;;;;19.86;32.79;101234.13;5118491;28;1508;-49
2021/03/26 01:40:22;;;;;;;;;;;;;;;19.45;33.55;101230.41;5118769;28;811;-49
2021/03/26 01:42:48;;;;;;;;;;;;;;;20.11;32.49;101235.91;5100241;28;1208;-49
2021/03/26 01:45:16;;;;;;;;;;;;;;;20.61;31.40;101231.09;5117810;28;1172;-50
2021/03/26 01:47:49;;;;;;;;;;;;;;;20.27;32.23;101236.59;5118617;28;857;-55
2021/03/26 01:50:15;;;;;;;;;;;;;;;20.22;32.28;101239.44;5117890;28;1034;-49
2021/03/26 01:52:41;;;;;;;;;;;;;;;19.53;33.60;101230.94;5118156;28;1890;-58
2021/03/26 01:55:07;;;;;;;;;;;;;;;20.21;32.21;101232.25;5118427;28;768;-58
2021/03/26 01:57:33;;;;;;;;;;;;;;;20.63;31.36;101236.31;5116730;28;1405;-49
2021/03/26 02:00:25;;;;;;;;;;;;;;;20.28;32.06;101238.25;5117048;28;1422;-59
2021/03/26 02:02:50;;;;;;;;;;;;;;;20.03;32.40;101247.53;5116990;28;836;-60
2021/03/26 02:05:30;;;;;;;;;;;;;;;19.57;33.55;101246.66;5102069;28;1231;-60
2021/03/26 02:08:20;;;;;;;;;;;;;;;20.64;31.69;101237.97;5109862;28;1528;-57
2021/03/26 02:10:57;;;;;;;;;;;;;;;20.30;31.97;101234.09;5117586;28;826;-60
2021/03/26 02:13:28;;;;;;;;;;;;;;;20.31;32.08;101232.16;5100367;28;1913;-48
2021/03/26 02:16:00;;;;;;;;;;;;;;;19.61;33.50;101233.09;5100586;28;1100;-59
2021/03/26 02:18:27;;;;;;;;;;;;;;;20.17;32.51;101238.34;5099625;28;1224;-51
2021/03/26 02:20:54;;;;;;;;;;;;;;;20.62;31.46;101243.81;5116857;28;965;-48
2021/03/26 02:23:21;;;;;;;;;;;;;;;20.26;32.12;101246.00;5096537;28;795;-59
2021/03/26 02:26:18;;;;;;;;;;;;;;;19.96;32.63;101245.94;5094026;28;1220;-58
2021/03/26 02:28:44;;;;;;;;;;;;;;;19.47;33.59;101246.69;5097608;28;794;-50
2021/03/26 02:31:28;;;;;;;;;;;;;;;20.47;31.84;101253.03;5096314;28;617;-49
2021/03/26 02:33:54;;;;;;;;;;;;;;;20.46;31.63;101248.59;5095838;28;1988;-48
2021/03/26 02:36:37;;;;;;;;;;;;;;;20.28;32.22;101254.84;5100452;28;1197;-51
2021/03/26 02:39:05;;;;;;;;;;;;;;;19.86;32.75;101270.00;5117634;28;735;-49
2021/03/26 02:41:41;;;;;;;;;;;;;;;19.86;33.14;101262.53;5116435;28;787;-50
2021/03/26 02:44:27;;;;;;;;;;;;;;;20.78;31.25;101263.84;5100623;28;1245;-52
2021/03/26 02:46:59;;;;;;;;;;;;;;;20.31;32.27;101270.81;5116342;28;771;-51
2021/03/26 02:49:27;;;;;;;;;;;;;;;20.20;32.41;101266.47;5099242;28;1105;-49
2021/03/26 02:51:59;;;;;;;;;;;;;;;19.49;33.47;101270.13;5116970;28;1023;-49
2021/03/26 02:54:27;;;;;;;;;;;;;;;20.17;32.29;101271.47;5116362;28;1913;-56
2021/03/26 02:56:56;;;;;;;;;;;;;;;20.83;31.00;101272.09;5116109;28;1310;-50
2021/03/26 02:59:24;;;;;;;;;;;;;;;20.30;32.15;101275.53;5117216;28;837;-59
2021/03/26 03:01:55;;;;;;;;;;;;;;;20.13;32.33;101275.91;5116199;28;826;-48
2021/03/26 03:04:34;;;;;;;;;;;;;;;19.55;33.45;101281.16;5099579;28;1451;-49
2021/03/26 03:07:05;;;;;;;;;;;;;;;20.33;32.12;101286.00;5115321;28;1091;-59
2021/03/26 03:10:36;;;;;;;;;;;;;;;20.35;31.81;101283.75;5103291;28;1564;-50
2021/03/26 03:13:05;;;;;;;;;;;;;;;20.10;32.50;101287.50;5082902;28;1909;-58
2021/03/26 03:15:31;;;;;;;;;;;;;;;19.76;33.10;101290.97;5116137;28;1212;-58
2021/03/26 03:18:00;;;;;;;;;;;;;;;19.72;33.24;101292.66;5117110;28;779;-50
2021/03/26 03:20:35;;;;;;;;;;;;;;;20.61;31.58;101291.88;5115882;28;1220;-48
2021/03/26 03:23:20;;;;;;;;;;;;;;;20.22;32.08;101289.13;5115089;28;966;-49
2021/03/26 03:26:28;;;;;;;;;;;;;;;20.02;32.52;101287.28;5115083;28;1165;-48
2021/03/26 03:28:55;;;;;;;;;;;;;;;19.49;33.67;101289.44;5115284;28;1252;-48
2021/03/26 03:31:54;;;;;;;;;;;;;;;20.57;31.78;101292.75;5113718;28;1212;-49
2021/03/26 03:34:25;;;;;;;;;;;;;;;20.48;31.77;101296.13;5119165;28;1958;-48
2021/03/26 03:36:57;;;;;;;;;;;;;;;20.34;32.02;101292.34;5099563;28;1161;-58
2021/03/26 03:39:29;;;;;;;;;;;;;;;19.74;32.98;101298.72;5099695;28;760;-51
2021/03/26 03:42:40;;;;;;;;;;;;;;;19.46;33.71;101306.53;5100541;28;819;-47
2021/03/26 03:45:08;;;;;;;;;;;;;;;20.57;31.57;101304.63;5077587;28;1258;-47
2021/03/26 03:47:38;;;;;;;;;;;;;;;20.18;32.06;101299.91;5082617;28;812;-49
2021/03/26 03:50:30;;;;;;;;;;;;;;;20.15;32.33;101298.53;5083470;28;1141;-59
2021/03/26 03:53:07;;;;;;;;;;;;;;;19.20;34.06;101310.47;5118236;28;1909;-58
2021/03/26 03:55:35;;;;;;;;;;;;;;;20.18;32.31;101317.28;5119157;28;1279;-49
2021/03/26 03:58:12;;;;;;;;;;;;;;;20.72;31.46;101320.28;5119661;28;1314;-52
2021/03/26 04:00:51;;;;;;;;;;;;;;;20.37;32.33;101313.88;5119619;28;1240;-47
2021/03/26 04:03:17;;;;;;;;;;;;;;;19.92;33.23;101321.28;5120708;28;774;-48
2021/03/26 04:05:48;;;;;;;;;;;;;;;19.34;34.15;101330.84;5120757;28;779;-47
2021/03/26 04:08:20;;;;;;;;;;;;;;;20.27;32.73;101319.44;5103663;28;1161;-47
2021/03/26 04:10:49;;;;;;;;;;;;;;;20.74;31.52;101320.00;5120245;28;791;-51
2021/03/26 04:13:15;;;;;;;;;;;;;;;20.19;32.65;101326.41;5102201;28;1927;-48
2021/03/26 04:15:42;;;;;;;;;;;;;;;20.15;32.47;101322.56;5102306;28;1316;-50
2021/03/26 04:18:41;;;;;;;;;;;;;;;19.41;33.83;101325.03;5118691;28;1104;-49
2021/03/26 04:21:17;;;;;;;;;;;;;;;20.13;32.62;101331.16;5110707;28;1368;-50
2021/03/26 04:24:42;;;;;;;;;;;;;;;20.92;31.02;101335.88;5118090;28;1137;-49
2021/03/26 04:27:33;;;;;;;;;;;;;;;21.14;30.78;101332.63;5043774;28;1206;-51
2021/03/26 04:30:21;;;;;;;;;;;;;;;20.56;31.71;101336.13;5040388;28;1389;-49
2021/03/26 04:32:51;;;;;;;;;;;;;;;20.03;32.53;101347.75;5104836;28;1991;-52
2021/03/26 04:35:18;;;;;;;;;;;;;;;19.54;33.64;101340.16;5102242;28;1351;-60
2021/03/26 04:37:47;;;;;;;;;;;;;;;19.93;32.92;101342.28;5119787;28;977;-53
2021/03/26 04:40:20;;;;;;;;;;;;;;;20.66;31.64;101347.13;5118396;28;1374;-53
2021/03/26 04:43:07;;;;;;;;;;;;;;;20.34;32.10;101356.72;5118620;28;827;-53
2021/03/26 04:45:47;;;;;;;;;;;;;;;20.15;32.31;101358.47;5118986;28;1156;-48
2021/03/26 04:48:38;;;;;;;;;;;;;;;19.42;33.77;101366.13;5118873;28;1315;-50
2021/03/26 04:51:32;;;;;;;;;;;;;;;20.16;32.28;101374.75;5114046;28;1229;-46
2021/03/26 04:54:34;;;;;;;;;;;;;;;20.54;31.42;101374.28;5119402;28;1961;-64
2021/03/26 04:57:06;;;;;;;;;;;;;;;20.20;32.02;101372.22;5117544;28;1259;-59
2021/03/26 04:59:40;;;;;;;;;;;;;;;19.80;32.69;101368.53;5102075;28;1126;-61
2021/03/26 05:02:11;;;;;;;;;;;;;;;19.62;32.95;101375.47;5117786;28;1164;-61
2021/03/26 05:04:38;;;;;;;;;;;;;;;20.52;31.29;101366.28;5101313;28;1321;-62
2021/03/26 05:07:09;;;;;;;;;;;;;;;20.43;31.59;101356.91;5101100;28;1220;-59
2021/03/26 05:09:36;;;;;;;;;;;;;;;20.28;31.47;101363.34;5118216;28;1298;-60
2021/03/26 05:12:09;;;;;;;;;;;;;;;19.88;32.34;101372.66;5117861;28;835;-46
2021/03/26 05:14:41;;;;;;;;;;;;;;;19.21;33.61;101375.50;5101303;28;1983;-47
2021/03/26 05:17:09;;;;;;;;;;;;;;;19.97;32.35;101382.00;5100995;28;1245;-47
2021/03/26 05:19:41;;;;;;;;;;;;;;;20.73;31.00;101374.44;5119419;28;739;-47
2021/03/26 05:22:28;;;;;;;;;;;;;;;20.24;31.96;101375.25;5117745;28;969;-48
2021/03/26 05:25:30;;;;;;;;;;;;;;;20.10;31.82;101384.16;5087036;28;1096;-48
2021/03/26 05:28:21;;;;;;;;;;;;;;;19.49;33.17;101382.38;5118148;28;1216;-63
2021/03/26 05:30:48;;;;;;;;;;;;;;;20.51;31.33;101375.66;5117552;28;1140;-48
2021/03/26 05:33:29;;;;;;;;;;;;;;;20.32;31.54;101371.91;5117859;28;1909;-59
2021/03/26 05:35:57;;;;;;;;;;;;;;;20.27;31.82;101385.72;5118391;28;930;-47
2021/03/26 05:39:03;;;;;;;;;;;;;;;19.63;32.89;101379.88;5055514;28;1202;-46
2021/03/26 05:41:53;;;;;;;;;;;;;;;19.96;32.32;101383.09;5113830;28;945;-50
2021/03/26 05:44:43;;;;;;;;;;;;;;;20.82;31.09;101382.97;5118672;28;616;-50
2021/03/26 05:47:14;;;;;;;;;;;;;;;20.38;31.42;101386.50;5117441;28;1200;-48
2021/03/26 05:50:06;;;;;;;;;;;;;;;20.21;31.91;101393.22;5117787;28;1213;-48
2021/03/26 05:52:32;;;;;;;;;;;;;;;19.45;33.35;101395.91;5118280;28;2066;-48
2021/03/26 05:55:17;;;;;;;;;;;;;;;20.39;31.79;101400.03;5116499;28;1215;-52
2021/03/26 05:58:05;;;;;;;;;;;;;;;20.57;31.15;101389.44;5117458;28;1404;-62
2021/03/26 06:00:46;;;;;;;;;;;;;;;20.48;31.58;101391.97;5099803;28;1532;-63
2021/03/26 06:03:33;;;;;;;;;;;;;;;19.82;32.53;101397.53;5118400;28;652;-63
2021/03/26 06:06:36;;;;;;;;;;;;;;;19.86;32.74;101392.25;5083131;28;1410;-49
2021/03/26 06:09:39;;;;;;;;;;;;;;;20.82;31.11;101391.25;5116973;28;634;-50
2021/03/26 06:12:42;;;;;;;;;;;;;;;20.39;31.75;101402.78;5118157;28;637;-49
2021/03/26 06:15:46;;;;;;;;;;;;;;;20.19;31.77;101395.44;5117872;28;617;-49
2021/03/26 06:18:43;;;;;;;;;;;;;;;19.69;32.87;101403.59;5116531;28;795;-56
2021/03/26 06:21:38;;;;;;;;;;;;;;;20.71;31.09;101398.78;5099603;28;1347;-55
2021/03/26 06:24:23;;;;;;;;;;;;;;;20.29;31.92;101400.09;5116435;28;1343;-59
2021/03/26 06:27:02;;;;;;;;;;;;;;;20.41;31.52;101419.09;5116879;28;963;-51
2021/03/26 06:29:46;;;;;;;;;;;;;;;19.50;33.21;101406.09;5116627;28;795;-53
2021/03/26 06:32:31;;;;;;;;;;;;;;;20.03;32.19;101408.47;5116958;28;1133;-64
2021/03/26 06:35:29;;;;;;;;;;;;;;;20.64;31.31;101410.13;5106730;28;1155;-62
2021/03/26 06:38:01;;;;;;;;;;;;;;;20.32;31.60;101422.44;5117161;28;997;-58
2021/03/26 06:40:38;;;;;;;;;;;;;;;20.03;32.20;101414.00;5117525;28;775;-55
2021/03/26 06:43:13;;;;;;;;;;;;;;;19.40;33.50;101423.47;5117676;28;771;-67
2021/03/26 06:45:41;;;;;;;;;;;;;;;20.57;31.49;101430.91;5115986;28;811;-62
2021/03/26 06:48:10;;;;;;;;;;;;;;;20.44;31.58;101430.41;5116851;28;747;-64
2021/03/26 06:51:06;;;;;;;;;;;;;;;20.22;31.93;101429.97;5117397;28;1189;-51
2021/03/26 06:53:31;;;;;;;;;;;;;;;19.47;33.36;101425.97;5084229;28;1905;-49
2021/03/26 06:56:02;;;;;;;;;;;;;;;19.93;32.67;101430.59;5097122;28;708;-62
2021/03/26 06:58:48;;;;;;;;;;;;;;;20.78;31.12;101426.91;5095798;28;759;-56
2021/03/26 07:01:46;;;;;;;;;;;;;;;20.39;31.77;101430.41;5096943;28;755;-58
2021/03/26 07:04:18;;;;;;;;;;;;;;;20.15;31.87;101427.50;5073821;28;1241;-59
2021/03/26 07:07:13;;;;;;;;;;;;;;;19.56;33.42;101437.25;5102079;28;947;-59
2021/03/26 07:09:50;;;;;;;;;;;;;;;20.63;31.20;101443.56;5102936;28;1402;-60
2021/03/26 07:12:19;;;;;;;;;;;;;;;20.49;31.57;101438.66;5116025;28;760;-47
2021/03/26 07:14:44;;;;;;;;;;;;;;;20.44;31.73;101440.59;5116184;27;1922;-52
2021/03/26 07:17:25;;;;;;;;;;;;;;;19.54;33.20;101431.19;5116962;28;743;-51
2021/03/26 07:20:10;;;;;;;;;;;;;;;19.88;32.63;101438.88;5135890;27;906;-49
2021/03/26 07:22:36;;;;;;;;;;;;;;;20.77;31.04;101438.25;5137168;27;940;-48
2021/03/26 07:25:27;;;;;;;;;;;;;;;20.37;31.65;101440.94;5137223;27;929;-64
2021/03/26 07:28:12;;;;;;;;;;;;;;;20.14;32.14;101434.13;5129263;27;1271;-47
2021/03/26 07:30:55;;;;;;;;;;;;;;;19.34;33.63;101445.84;5136899;28;883;-50
2021/03/26 07:33:21;;;;;;;;;;;;;;;20.44;31.52;101446.97;5136062;28;1901;-49
2021/03/26 07:35:50;;;;;;;;;;;;;;;20.75;30.95;101435.78;5136190;28;822;-49
2021/03/26 07:38:27;;;;;;;;;;;;;;;20.49;31.54;101443.34;5115891;28;891;-47
2021/03/26 07:41:11;;;;;;;;;;;;;;;19.91;32.34;101444.69;5115042;28;1420;-48
2021/03/26 07:43:49;;;;;;;;;;;;;;;19.48;33.59;101444.16;5116394;28;933;-49
2021/03/26 07:46:16;;;;;;;;;;;;;;;20.54;31.43;101448.00;5116054;28;1165;-47
2021/03/26 07:48:42;;;;;;;;;;;;;;;20.31;31.97;101440.13;5113772;28;888;-57
2021/03/26 07:51:26;;;;;;;;;;;;;;;20.31;31.72;101451.19;5115631;28;1093;-46
2021/03/26 07:53:55;;;;;;;;;;;;;;;19.65;33.13;101449.38;5113402;28;1982;-50
2021/03/26 07:56:41;;;;;;;;;;;;;;;19.40;33.69;101447.47;5114786;28;1005;-48
2021/03/26 07:59:25;;;;;;;;;;;;;;;20.54;31.39;101451.63;5115405;28;906;-58
2021/03/26 08:01:56;;;;;;;;;;;;;;;20.67;31.34;101458.47;5116003;28;946;-64
2021/03/26 08:04:37;;;;;;;;;;;;;;;21.18;30.28;101449.00;5115681;28;898;-46
2021/03/26 08:07:02;;;;;;;;;;;;;;;20.79;30.95;101458.13;5114754;28;966;-61
2021/03/26 08:09:41;;;;;;;;;;;;;;;20.56;31.54;101454.91;5115397;28;878;-61
2021/03/26 08:12:09;;;;;;;;;;;;;;;19.68;33.19;101459.84;5111026;28;883;-63
2021/03/26 08:14:38;;;;;;;;;;;;;;;19.29;33.61;101452.16;5115215;28;1955;-51
2021/03/26 08:17:09;;;;;;;;;;;;;;;20.09;32.31;101457.06;5115790;28;890;-63
2021/03/26 08:19:53;;;;;;;;;;;;;;;20.72;31.38;101465.91;5116222;28;883;-47
2021/03/26 08:22:33;;;;;;;;;;;;;;;20.52;31.42;101465.72;5118919;28;902;-45
2021/03/26 08:25:12;;;;;;;;;;;;;;;20.32;31.72;101460.28;5118689;28;871;-48
2021/03/26 08:27:47;;;;;;;;;;;;;;;19.45;33.57;101459.34;5119146;28;834;-52
2021/03/26 08:30:24;;;;;;;;;;;;;;;20.44;31.69;101463.56;5119335;28;886;-53
2021/03/26 08:33:04;;;;;;;;;;;;;;;20.66;31.43;101470.63;5118420;28;1974;-59
2021/03/26 08:35:31;;;;;;;;;;;;;;;20.48;31.58;101469.31;5116583;28;914;-64
2021/03/26 08:38:05;;;;;;;;;;;;;;;20.00;32.10;101464.25;5124002;27;867;-63
2021/03/26 08:40:40;;;;;;;;;;;;;;;19.33;33.69;101480.84;5138813;27;865;-62
2021/03/26 08:43:07;;;;;;;;;;;;;;;20.44;31.88;101473.75;5138904;27;897;-61
2021/03/26 08:45:34;;;;;;;;;;;;;;;20.62;31.27;101472.28;5140155;27;866;-50
2021/03/26 08:48:12;;;;;;;;;;;;;;;20.49;31.52;101471.78;5138455;27;871;-52
2021/03/26 08:50:37;;;;;;;;;;;;;;;20.20;31.94;101468.06;5137262;27;1149;-48
2021/03/26 08:53:09;;;;;;;;;;;;;;;19.33;33.78;101467.06;5139283;27;1983;-63
2021/03/26 08:55:51;;;;;;;;;;;;;;;20.36;32.01;101480.72;5140052;27;886;-65
2021/03/26 08:58:29;;;;;;;;;;;;;;;20.74;31.07;101481.09;5138249;27;883;-49
2021/03/26 09:01:07;;;;;;;;;;;;;;;20.40;31.99;101472.66;5139926;27;878;-45
2021/03/26 09:03:32;;;;;;;;;;;;;;;20.19;31.96;101470.00;5139158;27;889;-62
2021/03/26 09:06:18;;;;;;;;;;;;;;;19.41;33.60;101472.03;5139029;27;987;-66
2021/03/26 09:08:46;;;;;;;;;;;;;;;20.51;31.84;101471.53;5128831;27;1494;-51
2021/03/26 09:11:12;;;;;;;;;;;;;;;20.69;31.29;101481.13;5139588;27;846;-51
2021/03/26 09:13:56;;;;;;;;;;;;;;;20.55;31.59;101478.13;5138431;27;1913;-49
2021/03/26 09:16:38;;;;;;;;;;;;;;;19.91;32.52;101472.28;5137747;27;874;-59
2021/03/26 09:19:20;;;;;;;;;;;;;;;19.65;33.25;101474.22;5116084;27;1160;-64
2021/03/26 09:21:51;;;;;;;;;;;;;;;20.65;31.21;101480.00;5122749;27;914;-65
2021/03/26 09:24:20;;;;;;;;;;;;;;;20.39;31.53;101477.38;5135372;27;877;-58
2021/03/26 09:27:09;;;;;;;;;;;;;;;20.28;32.08;101492.34;5135127;27;885;-60
2021/03/26 09:29:38;;;;;;;;;;;;;;;19.38;33.41;101491.88;5126020;27;1515;-59
2021/03/26 09:32:08;;;;;;;;;;;;;;;19.70;33.20;101490.78;5116034;28;968;-49
2021/03/26 09:34:35;;;;;;;;;;;;;;;20.76;31.20;101481.66;5115313;28;1980;-46
2021/03/26 09:37:04;;;;;;;;;;;;;;;20.52;31.55;101482.31;5097983;28;927;-46
2021/03/26 09:39:31;;;;;;;;;;;;;;;20.41;31.70;101483.47;5116893;28;890;-62
2021/03/26 09:42:04;;;;;;;;;;;;;;;19.79;32.76;101483.59;5114879;28;887;-50
2021/03/26 09:44:38;;;;;;;;;;;;;;;19.65;33.35;101485.25;5113085;28;887;-55
2021/03/26 09:47:04;;;;;;;;;;;;;;;20.63;31.59;101493.28;5114731;28;883;-58
2021/03/26 09:49:31;;;;;;;;;;;;;;;20.62;31.23;101489.72;5115799;28;1062;-48
2021/03/26 09:52:18;;;;;;;;;;;;;;;20.44;31.66;101477.38;5117597;28;1042;-55
2021/03/26 09:54:47;;;;;;;;;;;;;;;19.80;32.67;101487.22;5116300;28;1979;-48
2021/03/26 09:57:16;;;;;;;;;;;;;;;19.71;32.97;101481.38;5117542;28;890;-53
2021/03/26 09:59:51;;;;;;;;;;;;;;;20.68;31.22;101493.31;5117839;28;930;-62
2021/03/26 10:02:25;;;;;;;;;;;;;;;20.57;31.43;101486.16;5116639;28;887;-59
2021/03/26 10:04:57;;;;;;;;;;;;;;;20.42;31.64;101482.31;5117025;28;898;-51
2021/03/26 10:07:32;;;;;;;;;;;;;;;19.79;32.90;101480.84;5116948;28;946;-51
2021/03/26 10:10:43;;;;;;;;;;;;;;;19.82;32.81;101473.94;5115463;28;871;-56
2021/03/26 10:12:48;;;;;;;;;;;;;;;20.78;31.00;101493.25;5116389;28;1986;-52
2021/03/26 10:15:21;;;;;;;;;;;;;;;20.41;31.65;101477.94;5115368;28;934;-54
2021/03/26 10:17:49;;;;;;;;;;;;;;;20.27;32.06;101485.16;5114805;28;891;-52
2021/03/26 10:20:18;;;;;;;;;;;;;;;19.47;33.34;101483.88;5115243;28;913;-60
2021/03/26 10:22:43;;;;;;;;;;;;;;;19.70;32.99;101488.03;5115758;28;1061;-58
2021/03/26 10:25:24;;;;;;;;;;;;;;;20.76;31.08;101486.34;5123708;27;891;-59
2021/03/26 10:27:53;;;;;;;;;;;;;;;21.28;30.23;101481.31;5134752;27;885;-59
2021/03/26 10:30:33;;;;;;;;;;;;;;;21.03;30.65;101481.22;5134802;27;1094;-61
2021/03/26 10:33:05;;;;;;;;;;;;;;;20.85;31.16;101484.66;5113423;28;1952;-51
2021/03/26 10:35:31;;;;;;;;;;;;;;;20.23;31.94;101490.44;5115740;28;895;-56
2021/03/26 10:38:00;;;;;;;;;;;;;;;19.35;33.85;101492.44;5116787;28;954;-53
2021/03/26 10:40:26;;;;;;;;;;;;;;;20.07;32.47;101486.88;5116775;28;886;-54
2021/03/26 10:43:07;;;;;;;;;;;;;;;20.71;31.37;101486.41;5115225;28;870;-50
2021/03/26 10:45:32;;;;;;;;;;;;;;;20.46;31.57;101480.66;5114711;28;894;-55
2021/03/26 10:48:00;;;;;;;;;;;;;;;20.20;31.95;101479.91;5114048;28;886;-55
2021/03/26 10:50:33;;;;;;;;;;;;;;;19.27;34.01;101484.72;5114267;28;1207;-48
2021/03/26 10:53:17;;;;;;;;;;;;;;;19.75;33.04;101479.72;5114655;27;1921;-48
2021/03/26 10:55:50;;;;;;;;;;;;;;;20.71;31.13;101484.44;5082031;28;899;-49
2021/03/26 10:58:19;;;;;;;;;;;;;;;20.38;31.98;101472.94;5115004;27;934;-57
2021/03/26 11:00:50;;;;;;;;;;;;;;;20.42;31.73;101470.47;5116447;28;926;-49
2021/03/26 11:03:17;;;;;;;;;;;;;;;19.53;33.33;101473.66;5110769;28;1495;-60
2021/03/26 11:05:47;;;;;;;;;;;;;;;20.12;32.52;101488.81;5114930;27;864;-61
2021/03/26 11:08:26;;;;;;;;;;;;;;;20.96;30.75;101488.19;5136355;27;958;-56
2021/03/26 11:10:58;;;;;;;;;;;;;;;20.40;31.75;101479.03;5123416;27;953;-48
2021/03/26 11:13:27;;;;;;;;;;;;;;;20.10;32.09;101480.78;5115983;28;1910;-55
2021/03/26 11:16:00;;;;;;;;;;;;;;;19.46;33.25;101472.03;5113734;28;945;-57
2021/03/26 11:18:50;;;;;;;;;;;;;;;20.34;32.05;101469.94;5110204;27;1128;-65
2021/03/26 11:21:16;;;;;;;;;;;;;;;20.77;31.26;101461.19;5107013;27;1096;-53
2021/03/26 11:23:41;;;;;;;;;;;;;;;20.35;31.94;101468.00;5111180;27;999;-51
2021/03/26 11:26:13;;;;;;;;;;;;;;;20.12;32.07;101478.56;5094469;28;1106;-48
2021/03/26 11:28:39;;;;;;;;;;;;;;;19.29;33.83;101477.81;5096231;28;945;-55
2021/03/26 11:31:11;;;;;;;;;;;;;;;20.40;31.86;101468.00;5114693;28;958;-50
2021/03/26 11:33:39;;;;;;;;;;;;;;;20.75;31.01;101476.41;5116721;28;1917;-48
2021/03/26 11:36:24;;;;;;;;;;;;;;;20.56;31.43;101470.69;5116420;28;871;-48
2021/03/26 11:39:22;;;;;;;;;;;;;;;20.02;32.50;101467.56;5109120;28;882;-51
2021/03/26 11:41:56;;;;;;;;;;;;;;;19.35;33.82;101470.38;5074799;28;1058;-54
2021/03/26 11:44:24;;;;;;;;;;;;;;;20.53;31.65;101466.53;5115801;28;816;-46
2021/03/26 11:46:51;;;;;;;;;;;;;;;20.67;31.42;101466.75;5114256;28;1197;-45
2021/03/26 11:49:18;;;;;;;;;;;;;;;20.34;31.74;101469.94;5114588;28;887;-62
2021/03/26 11:51:49;;;;;;;;;;;;;;;20.10;32.29;101460.63;5113848;28;995;-66
2021/03/26 11:54:18;;;;;;;;;;;;;;;19.39;33.70;101465.97;5113064;27;1913;-48
2021/03/26 11:56:48;;;;;;;;;;;;;;;20.39;32.04;101463.56;5115824;27;913;-55
2021/03/26 11:59:37;;;;;;;;;;;;;;;20.47;31.63;101471.25;5111966;28;885;-49
2021/03/26 12:02:16;;;;;;;;;;;;;;;20.43;31.56;101461.91;5118230;27;1111;-45
2021/03/26 12:04:43;;;;;;;;;;;;;;;19.71;32.87;101466.75;5099529;28;878;-45
2021/03/26 12:07:10;;;;;;;;;;;;;;;19.81;32.86;101462.09;5114095;28;981;-64
2021/03/26 12:09:48;;;;;;;;;;;;;;;20.69;31.42;101467.31;5117819;28;898;-52
2021/03/26 12:12:18;;;;;;;;;;;;;;;20.56;31.21;101451.34;5117765;28;898;-50
2021/03/26 12:15:03;;;;;;;;;;;;;;;20.45;31.57;101459.66;5116517;27;1909;-50
2021/03/26 12:17:44;;;;;;;;;;;;;;;19.66;32.77;101448.28;5118609;28;771;-58
2021/03/26 12:20:16;;;;;;;;;;;;;;;19.80;32.95;101446.63;5118862;28;790;-64
2021/03/26 12:22:54;;;;;;;;;;;;;;;20.70;31.03;101457.09;5120098;28;1021;-52
2021/03/26 12:25:25;;;;;;;;;;;;;;;20.59;31.25;101442.47;5117534;28;879;-61
2021/03/26 12:27:53;;;;;;;;;;;;;;;20.49;31.33;101440.59;5118304;27;882;-46
2021/03/26 12:30:19;;;;;;;;;;;;;;;19.88;32.31;101449.91;5116614;27;923;-54
2021/03/26 12:32:57;;;;;;;;;;;;;;;19.44;33.54;101446.63;5119488;27;1921;-54
2021/03/26 12:35:48;;;;;;;;;;;;;;;20.57;31.19;101447.47;5119085;28;1154;-49
2021/03/26 12:38:22;;;;;;;;;;;;;;;20.28;31.66;101437.91;5126042;27;1622;-45
2021/03/26 12:40:47;;;;;;;;;;;;;;;20.42;31.41;101437.31;5117680;28;936;-60
2021/03/26 12:43:13;;;;;;;;;;;;;;;19.60;32.86;101439.19;5116261;27;927;-47
2021/03/26 12:45:57;;;;;;;;;;;;;;;19.54;33.12;101443.06;5118010;27;954;-50
2021/03/26 12:48:38;;;;;;;;;;;;;;;20.60;31.15;101450.47;5119291;27;894;-62
2021/03/26 12:51:16;;;;;;;;;;;;;;;20.34;31.61;101438.72;5118879;27;1098;-54
2021/03/26 12:53:46;;;;;;;;;;;;;;;20.31;31.74;101442.91;5116442;28;1913;-53
2021/03/26 12:56:12;;;;;;;;;;;;;;;19.65;32.92;101435.59;5117516;27;923;-54
2021/03/26 12:58:37;;;;;;;;;;;;;;;20.02;32.29;101433.59;5119202;27;941;-48
2021/03/26 13:01:10;;;;;;;;;;;;;;;20.84;31.00;101434.03;5118963;27;882;-51
2021/03/26 13:03:35;;;;;;;;;;;;;;;20.44;31.34;101444.22;5117602;27;934;-62
2021/03/26 13:06:18;;;;;;;;;;;;;;;20.39;31.35;101447.00;5119071;27;1005;-46
2021/03/26 13:08:45;;;;;;;;;;;;;;;19.46;33.22;101446.38;5123738;27;879;-45
2021/03/26 13:11:20;;;;;;;;;;;;;;;20.20;31.91;101438.50;5117150;27;884;-59
2021/03/26 13:13:54;;;;;;;;;;;;;;;20.87;30.83;101424.34;5118259;27;1922;-51
2021/03/26 13:16:26;;;;;;;;;;;;;;;20.32;31.52;101439.00;5119002;28;747;-47
2021/03/26 13:18:54;;;;;;;;;;;;;;;20.22;31.95;101438.25;5118448;28;957;-47
2021/03/26 13:21:29;;;;;;;;;;;;;;;19.35;33.51;101445.56;5118222;28;823;-45
2021/03/26 13:23:55;;;;;;;;;;;;;;;20.29;31.73;101444.28;5118114;28;890;-46
2021/03/26 13:26:22;;;;;;;;;;;;;;;20.70;31.08;101437.75;5116978;28;872;-47
2021/03/26 13:28:55;;;;;;;;;;;;;;;20.38;31.47;101452.81;5115869;28;927;-59
2021/03/26 13:31:21;;;;;;;;;;;;;;;20.07;32.04;101448.22;5118061;28;895;-49